sensor_id;sensor_type;location;lat;lon;timestamp;P1;durP1;ratioP1;P2;durP2;ratioP2
22955;SDS011;40888;48.148;11.526;2023-07-31T00:02:18;4.53;;;1.98;;
22955;SDS011;40888;48.148;11.526;2023-07-31T00:04:44;3.85;;;1.48;;
22955;SDS011;40888;48.148;11.526;2023-07-31T00:07:10;5.43;;;1.80;;
22955;SDS011;40888;48.148;11.526;2023-07-31T00:09:36;2.83;;;1.50;;
22955;SDS011;40888;48.148;11.526;2023-07-31T00:12:02;3.17;;;1.83;;
22955;SDS011;40888;48.148;11.526;2023-07-31T00:14:27;3.40;;;2.08;;
22955;SDS011;40888;48.148;11.526;2023-07-31T00:16:53;3.72;;;2.08;;
22955;SDS011;40888;48.148;11.526;2023-07-31T00:19:19;3.30;;;1.90;;
22955;SDS011;40888;48.148;11.526;2023-07-31T00:21:44;2.70;;;1.70;;
22955;SDS011;40888;48.148;11.526;2023-07-31T00:24:10;5.13;;;2.13;;
22955;SDS011;40888;48.148;11.526;2023-07-31T00:26:36;6.90;;;1.92;;
22955;SDS011;40888;48.148;11.526;2023-07-31T00:29:02;2.63;;;1.85;;
22955;SDS011;40888;48.148;11.526;2023-07-31T00:31:27;4.55;;;2.00;;
22955;SDS011;40888;48.148;11.526;2023-07-31T00:33:53;3.97;;;1.77;;
22955;SDS011;40888;48.148;11.526;2023-07-31T00:36:19;4.57;;;1.88;;
22955;SDS011;40888;48.148;11.526;2023-07-31T00:38:45;3.80;;;1.80;;
22955;SDS011;40888;48.148;11.526;2023-07-31T00:41:10;4.60;;;2.05;;
22955;SDS011;40888;48.148;11.526;2023-07-31T00:43:36;4.60;;;2.08;;
22955;SDS011;40888;48.148;11.526;2023-07-31T00:46:02;2.72;;;1.88;;
22955;SDS011;40888;48.148;11.526;2023-07-31T00:48:27;5.10;;;2.10;;
22955;SDS011;40888;48.148;11.526;2023-07-31T00:50:54;2.60;;;1.90;;
22955;SDS011;40888;48.148;11.526;2023-07-31T00:53:20;3.50;;;1.90;;
22955;SDS011;40888;48.148;11.526;2023-07-31T00:55:46;2.10;;;1.90;;
22955;SDS011;40888;48.148;11.526;2023-07-31T00:58:12;2.63;;;1.67;;
22955;SDS011;40888;48.148;11.526;2023-07-31T01:00:38;2.55;;;1.65;;
22955;SDS011;40888;48.148;11.526;2023-07-31T01:03:04;3.35;;;2.17;;
22955;SDS011;40888;48.148;11.526;2023-07-31T01:05:36;3.93;;;2.10;;
22955;SDS011;40888;48.148;11.526;2023-07-31T01:08:24;2.05;;;1.80;;
22955;SDS011;40888;48.148;11.526;2023-07-31T01:11:43;4.60;;;1.83;;
22955;SDS011;40888;48.148;11.526;2023-07-31T01:14:11;2.50;;;1.88;;
22955;SDS011;40888;48.148;11.526;2023-07-31T01:16:37;5.15;;;2.03;;
22955;SDS011;40888;48.148;11.526;2023-07-31T01:19:04;3.83;;;1.80;;
22955;SDS011;40888;48.148;11.526;2023-07-31T01:26:30;3.67;;;2.08;;
22955;SDS011;40888;48.148;11.526;2023-07-31T01:29:17;3.83;;;1.42;;
22955;SDS011;40888;48.148;11.526;2023-07-31T01:32:06;1.65;;;1.48;;
22955;SDS011;40888;48.148;11.526;2023-07-31T01:34:34;3.55;;;2.15;;
22955;SDS011;40888;48.148;11.526;2023-07-31T01:37:01;3.38;;;1.95;;
22955;SDS011;40888;48.148;11.526;2023-07-31T01:39:28;3.30;;;1.67;;
22955;SDS011;40888;48.148;11.526;2023-07-31T01:41:53;3.60;;;1.70;;
22955;SDS011;40888;48.148;11.526;2023-07-31T01:44:19;3.88;;;1.95;;
22955;SDS011;40888;48.148;11.526;2023-07-31T01:46:45;2.97;;;1.98;;
22955;SDS011;40888;48.148;11.526;2023-07-31T01:49:11;4.53;;;1.63;;
22955;SDS011;40888;48.148;11.526;2023-07-31T01:51:37;5.68;;;2.70;;
22955;SDS011;40888;48.148;11.526;2023-07-31T01:54:02;2.97;;;2.17;;
22955;SDS011;40888;48.148;11.526;2023-07-31T01:56:28;2.58;;;1.63;;
22955;SDS011;40888;48.148;11.526;2023-07-31T01:58:54;2.05;;;1.65;;
22955;SDS011;40888;48.148;11.526;2023-07-31T02:01:20;4.40;;;2.17;;
22955;SDS011;40888;48.148;11.526;2023-07-31T02:03:45;3.70;;;2.10;;
22955;SDS011;40888;48.148;11.526;2023-07-31T02:06:11;3.35;;;1.77;;
22955;SDS011;40888;48.148;11.526;2023-07-31T02:08:37;2.73;;;2.17;;
22955;SDS011;40888;48.148;11.526;2023-07-31T02:11:03;3.45;;;2.10;;
22955;SDS011;40888;48.148;11.526;2023-07-31T02:13:28;4.72;;;1.80;;
22955;SDS011;40888;48.148;11.526;2023-07-31T02:15:54;5.18;;;1.90;;
22955;SDS011;40888;48.148;11.526;2023-07-31T02:18:20;3.90;;;2.10;;
22955;SDS011;40888;48.148;11.526;2023-07-31T02:20:50;5.65;;;2.10;;
22955;SDS011;40888;48.148;11.526;2023-07-31T02:23:17;4.60;;;2.28;;
22955;SDS011;40888;48.148;11.526;2023-07-31T02:25:44;2.33;;;1.70;;
22955;SDS011;40888;48.148;11.526;2023-07-31T02:28:10;4.07;;;1.80;;
22955;SDS011;40888;48.148;11.526;2023-07-31T02:30:36;2.60;;;1.73;;
22955;SDS011;40888;48.148;11.526;2023-07-31T02:33:01;4.15;;;1.77;;
22955;SDS011;40888;48.148;11.526;2023-07-31T02:35:27;2.80;;;1.73;;
22955;SDS011;40888;48.148;11.526;2023-07-31T02:37:53;2.88;;;1.92;;
22955;SDS011;40888;48.148;11.526;2023-07-31T02:40:19;2.83;;;2.03;;
22955;SDS011;40888;48.148;11.526;2023-07-31T02:42:44;2.40;;;2.00;;
22955;SDS011;40888;48.148;11.526;2023-07-31T02:45:10;2.53;;;2.07;;
22955;SDS011;40888;48.148;11.526;2023-07-31T02:47:36;4.63;;;2.03;;
22955;SDS011;40888;48.148;11.526;2023-07-31T02:50:02;2.97;;;1.88;;
22955;SDS011;40888;48.148;11.526;2023-07-31T02:52:28;3.08;;;2.10;;
22955;SDS011;40888;48.148;11.526;2023-07-31T02:54:54;3.47;;;1.73;;
22955;SDS011;40888;48.148;11.526;2023-07-31T02:57:20;2.83;;;1.98;;
22955;SDS011;40888;48.148;11.526;2023-07-31T02:59:46;3.35;;;2.03;;
22955;SDS011;40888;48.148;11.526;2023-07-31T03:02:11;4.10;;;2.13;;
22955;SDS011;40888;48.148;11.526;2023-07-31T03:04:38;4.17;;;1.90;;
22955;SDS011;40888;48.148;11.526;2023-07-31T03:07:04;2.60;;;2.10;;
22955;SDS011;40888;48.148;11.526;2023-07-31T03:09:30;2.13;;;1.75;;
22955;SDS011;40888;48.148;11.526;2023-07-31T03:11:56;3.27;;;1.93;;
22955;SDS011;40888;48.148;11.526;2023-07-31T03:14:21;3.22;;;2.10;;
22955;SDS011;40888;48.148;11.526;2023-07-31T03:16:47;2.53;;;2.03;;
22955;SDS011;40888;48.148;11.526;2023-07-31T03:19:14;3.70;;;1.92;;
22955;SDS011;40888;48.148;11.526;2023-07-31T03:21:40;3.15;;;1.98;;
22955;SDS011;40888;48.148;11.526;2023-07-31T03:24:05;4.18;;;2.03;;
22955;SDS011;40888;48.148;11.526;2023-07-31T03:26:31;4.80;;;2.17;;
22955;SDS011;40888;48.148;11.526;2023-07-31T03:28:58;2.13;;;1.73;;
22955;SDS011;40888;48.148;11.526;2023-07-31T03:31:24;5.27;;;2.50;;
22955;SDS011;40888;48.148;11.526;2023-07-31T03:33:49;3.67;;;2.13;;
22955;SDS011;40888;48.148;11.526;2023-07-31T03:36:15;3.58;;;2.03;;
22955;SDS011;40888;48.148;11.526;2023-07-31T03:38:41;4.40;;;2.40;;
22955;SDS011;40888;48.148;11.526;2023-07-31T03:41:06;5.17;;;2.40;;
22955;SDS011;40888;48.148;11.526;2023-07-31T03:43:32;3.25;;;2.35;;
22955;SDS011;40888;48.148;11.526;2023-07-31T03:46:01;4.90;;;2.90;;
22955;SDS011;40888;48.148;11.526;2023-07-31T03:48:27;3.88;;;2.38;;
22955;SDS011;40888;48.148;11.526;2023-07-31T03:50:54;4.90;;;2.27;;
22955;SDS011;40888;48.148;11.526;2023-07-31T03:53:20;3.92;;;2.58;;
22955;SDS011;40888;48.148;11.526;2023-07-31T03:55:45;2.85;;;1.90;;
22955;SDS011;40888;48.148;11.526;2023-07-31T03:58:12;4.03;;;2.83;;
22955;SDS011;40888;48.148;11.526;2023-07-31T04:00:39;3.03;;;2.47;;
22955;SDS011;40888;48.148;11.526;2023-07-31T04:03:05;3.33;;;2.27;;
22955;SDS011;40888;48.148;11.526;2023-07-31T04:05:31;2.80;;;2.38;;
22955;SDS011;40888;48.148;11.526;2023-07-31T04:07:58;2.33;;;2.13;;
22955;SDS011;40888;48.148;11.526;2023-07-31T04:10:23;9.13;;;2.90;;
22955;SDS011;40888;48.148;11.526;2023-07-31T04:12:49;7.13;;;2.33;;
22955;SDS011;40888;48.148;11.526;2023-07-31T04:15:15;4.40;;;2.40;;
22955;SDS011;40888;48.148;11.526;2023-07-31T04:17:41;3.97;;;2.40;;
22955;SDS011;40888;48.148;11.526;2023-07-31T04:20:07;4.50;;;2.47;;
22955;SDS011;40888;48.148;11.526;2023-07-31T04:22:33;4.23;;;2.70;;
22955;SDS011;40888;48.148;11.526;2023-07-31T04:24:58;4.93;;;2.50;;
22955;SDS011;40888;48.148;11.526;2023-07-31T04:27:24;3.13;;;2.10;;
22955;SDS011;40888;48.148;11.526;2023-07-31T04:29:50;5.43;;;2.73;;
22955;SDS011;40888;48.148;11.526;2023-07-31T04:32:17;4.77;;;2.53;;
22955;SDS011;40888;48.148;11.526;2023-07-31T04:34:43;2.73;;;2.53;;
22955;SDS011;40888;48.148;11.526;2023-07-31T04:37:08;2.73;;;2.47;;
22955;SDS011;40888;48.148;11.526;2023-07-31T04:39:34;3.03;;;2.60;;
22955;SDS011;40888;48.148;11.526;2023-07-31T04:42:00;4.63;;;2.63;;
22955;SDS011;40888;48.148;11.526;2023-07-31T04:44:25;4.80;;;2.87;;
22955;SDS011;40888;48.148;11.526;2023-07-31T04:46:52;5.63;;;2.53;;
22955;SDS011;40888;48.148;11.526;2023-07-31T04:49:19;3.93;;;2.70;;
22955;SDS011;40888;48.148;11.526;2023-07-31T04:51:44;3.73;;;2.93;;
22955;SDS011;40888;48.148;11.526;2023-07-31T04:54:10;5.40;;;2.70;;
22955;SDS011;40888;48.148;11.526;2023-07-31T04:56:38;10.57;;;2.63;;
22955;SDS011;40888;48.148;11.526;2023-07-31T04:59:03;4.03;;;2.63;;
22955;SDS011;40888;48.148;11.526;2023-07-31T05:01:29;3.93;;;2.80;;
22955;SDS011;40888;48.148;11.526;2023-07-31T05:03:55;3.77;;;2.90;;
22955;SDS011;40888;48.148;11.526;2023-07-31T05:06:20;6.43;;;2.77;;
22955;SDS011;40888;48.148;11.526;2023-07-31T05:08:46;3.47;;;2.87;;
22955;SDS011;40888;48.148;11.526;2023-07-31T05:11:12;3.93;;;2.83;;
22955;SDS011;40888;48.148;11.526;2023-07-31T05:13:37;5.77;;;3.07;;
22955;SDS011;40888;48.148;11.526;2023-07-31T05:16:03;3.07;;;2.80;;
22955;SDS011;40888;48.148;11.526;2023-07-31T05:18:29;4.87;;;2.90;;
22955;SDS011;40888;48.148;11.526;2023-07-31T05:20:55;3.70;;;2.57;;
22955;SDS011;40888;48.148;11.526;2023-07-31T05:23:21;8.00;;;3.57;;
22955;SDS011;40888;48.148;11.526;2023-07-31T05:25:46;4.70;;;2.80;;
22955;SDS011;40888;48.148;11.526;2023-07-31T05:28:12;3.77;;;2.70;;
22955;SDS011;40888;48.148;11.526;2023-07-31T05:30:38;5.40;;;2.93;;
22955;SDS011;40888;48.148;11.526;2023-07-31T05:33:04;6.13;;;2.80;;
22955;SDS011;40888;48.148;11.526;2023-07-31T05:35:29;6.32;;;2.47;;
22955;SDS011;40888;48.148;11.526;2023-07-31T05:37:55;2.45;;;2.25;;
22955;SDS011;40888;48.148;11.526;2023-07-31T05:40:21;3.78;;;2.30;;
22955;SDS011;40888;48.148;11.526;2023-07-31T05:42:47;5.13;;;2.50;;
22955;SDS011;40888;48.148;11.526;2023-07-31T05:45:12;7.75;;;2.92;;
22955;SDS011;40888;48.148;11.526;2023-07-31T05:47:38;5.70;;;2.30;;
22955;SDS011;40888;48.148;11.526;2023-07-31T05:50:04;6.82;;;2.22;;
22955;SDS011;40888;48.148;11.526;2023-07-31T05:52:30;4.18;;;2.13;;
22955;SDS011;40888;48.148;11.526;2023-07-31T05:54:56;4.30;;;1.98;;
22955;SDS011;40888;48.148;11.526;2023-07-31T05:57:22;7.65;;;2.38;;
22955;SDS011;40888;48.148;11.526;2023-07-31T05:59:48;4.38;;;2.20;;
22955;SDS011;40888;48.148;11.526;2023-07-31T06:02:14;2.47;;;2.10;;
22955;SDS011;40888;48.148;11.526;2023-07-31T06:04:39;2.50;;;2.03;;
22955;SDS011;40888;48.148;11.526;2023-07-31T06:07:05;4.93;;;1.90;;
22955;SDS011;40888;48.148;11.526;2023-07-31T06:09:31;5.70;;;2.20;;
22955;SDS011;40888;48.148;11.526;2023-07-31T06:11:57;3.30;;;1.98;;
22955;SDS011;40888;48.148;11.526;2023-07-31T06:14:22;3.90;;;2.10;;
22955;SDS011;40888;48.148;11.526;2023-07-31T06:16:48;3.75;;;2.60;;
22955;SDS011;40888;48.148;11.526;2023-07-31T06:19:14;4.32;;;2.05;;
22955;SDS011;40888;48.148;11.526;2023-07-31T06:21:39;4.03;;;2.45;;
22955;SDS011;40888;48.148;11.526;2023-07-31T06:24:08;3.85;;;2.58;;
22955;SDS011;40888;48.148;11.526;2023-07-31T06:26:33;3.15;;;2.03;;
22955;SDS011;40888;48.148;11.526;2023-07-31T06:28:59;3.60;;;1.92;;
22955;SDS011;40888;48.148;11.526;2023-07-31T06:31:25;3.20;;;2.03;;
22955;SDS011;40888;48.148;11.526;2023-07-31T06:33:51;4.80;;;1.90;;
22955;SDS011;40888;48.148;11.526;2023-07-31T06:36:17;3.22;;;1.90;;
22955;SDS011;40888;48.148;11.526;2023-07-31T06:38:43;4.63;;;1.98;;
22955;SDS011;40888;48.148;11.526;2023-07-31T06:41:09;1.77;;;1.60;;
22955;SDS011;40888;48.148;11.526;2023-07-31T06:43:35;3.00;;;2.33;;
22955;SDS011;40888;48.148;11.526;2023-07-31T06:46:05;5.07;;;2.17;;
22955;SDS011;40888;48.148;11.526;2023-07-31T06:48:32;2.60;;;1.70;;
22955;SDS011;40888;48.148;11.526;2023-07-31T06:50:58;2.22;;;1.60;;
22955;SDS011;40888;48.148;11.526;2023-07-31T06:53:25;6.47;;;1.92;;
22955;SDS011;40888;48.148;11.526;2023-07-31T06:55:51;3.88;;;2.10;;
22955;SDS011;40888;48.148;11.526;2023-07-31T06:58:17;2.83;;;2.00;;
22955;SDS011;40888;48.148;11.526;2023-07-31T07:00:43;5.13;;;2.28;;
22955;SDS011;40888;48.148;11.526;2023-07-31T07:03:08;3.85;;;2.28;;
22955;SDS011;40888;48.148;11.526;2023-07-31T07:05:34;3.47;;;2.10;;
22955;SDS011;40888;48.148;11.526;2023-07-31T07:08:00;4.28;;;2.08;;
22955;SDS011;40888;48.148;11.526;2023-07-31T07:10:28;2.47;;;1.90;;
22955;SDS011;40888;48.148;11.526;2023-07-31T07:12:54;3.45;;;1.90;;
22955;SDS011;40888;48.148;11.526;2023-07-31T07:15:20;4.25;;;1.83;;
22955;SDS011;40888;48.148;11.526;2023-07-31T07:17:46;2.25;;;1.80;;
22955;SDS011;40888;48.148;11.526;2023-07-31T07:20:12;3.88;;;2.08;;
22955;SDS011;40888;48.148;11.526;2023-07-31T07:22:37;3.97;;;1.90;;
22955;SDS011;40888;48.148;11.526;2023-07-31T07:25:04;3.20;;;2.08;;
22955;SDS011;40888;48.148;11.526;2023-07-31T07:27:30;2.40;;;2.00;;
22955;SDS011;40888;48.148;11.526;2023-07-31T07:29:56;3.33;;;2.10;;
22955;SDS011;40888;48.148;11.526;2023-07-31T07:32:22;2.58;;;1.77;;
22955;SDS011;40888;48.148;11.526;2023-07-31T07:34:48;4.45;;;2.30;;
22955;SDS011;40888;48.148;11.526;2023-07-31T07:37:14;5.40;;;2.28;;
22955;SDS011;40888;48.148;11.526;2023-07-31T07:39:40;4.57;;;2.10;;
22955;SDS011;40888;48.148;11.526;2023-07-31T07:42:06;4.65;;;2.28;;
22955;SDS011;40888;48.148;11.526;2023-07-31T07:44:32;3.42;;;2.10;;
22955;SDS011;40888;48.148;11.526;2023-07-31T07:46:58;3.47;;;2.22;;
22955;SDS011;40888;48.148;11.526;2023-07-31T07:49:23;3.88;;;2.05;;
22955;SDS011;40888;48.148;11.526;2023-07-31T07:51:49;2.95;;;1.77;;
22955;SDS011;40888;48.148;11.526;2023-07-31T07:54:15;3.22;;;1.95;;
22955;SDS011;40888;48.148;11.526;2023-07-31T07:56:42;4.13;;;1.90;;
22955;SDS011;40888;48.148;11.526;2023-07-31T07:59:08;2.80;;;2.00;;
22955;SDS011;40888;48.148;11.526;2023-07-31T08:01:34;4.13;;;1.90;;
22955;SDS011;40888;48.148;11.526;2023-07-31T08:03:59;8.02;;;2.65;;
22955;SDS011;40888;48.148;11.526;2023-07-31T08:06:25;5.80;;;2.03;;
22955;SDS011;40888;48.148;11.526;2023-07-31T08:08:51;5.63;;;2.15;;
22955;SDS011;40888;48.148;11.526;2023-07-31T08:11:17;2.40;;;1.70;;
22955;SDS011;40888;48.148;11.526;2023-07-31T08:13:42;2.20;;;1.80;;
22955;SDS011;40888;48.148;11.526;2023-07-31T08:16:08;4.20;;;1.85;;
22955;SDS011;40888;48.148;11.526;2023-07-31T08:18:35;3.22;;;2.05;;
22955;SDS011;40888;48.148;11.526;2023-07-31T08:21:01;2.80;;;1.77;;
22955;SDS011;40888;48.148;11.526;2023-07-31T08:23:28;2.22;;;1.52;;
22955;SDS011;40888;48.148;11.526;2023-07-31T08:25:53;3.42;;;1.60;;
22955;SDS011;40888;48.148;11.526;2023-07-31T08:28:19;3.08;;;1.80;;
22955;SDS011;40888;48.148;11.526;2023-07-31T08:30:45;3.08;;;1.90;;
22955;SDS011;40888;48.148;11.526;2023-07-31T08:33:10;2.05;;;1.40;;
22955;SDS011;40888;48.148;11.526;2023-07-31T08:35:36;4.40;;;2.10;;
22955;SDS011;40888;48.148;11.526;2023-07-31T08:38:03;2.28;;;1.48;;
22955;SDS011;40888;48.148;11.526;2023-07-31T08:40:29;4.65;;;2.08;;
22955;SDS011;40888;48.148;11.526;2023-07-31T08:42:55;2.03;;;1.75;;
22955;SDS011;40888;48.148;11.526;2023-07-31T08:45:27;2.88;;;1.38;;
22955;SDS011;40888;48.148;11.526;2023-07-31T08:47:53;2.70;;;1.60;;
22955;SDS011;40888;48.148;11.526;2023-07-31T08:50:21;2.45;;;1.70;;
22955;SDS011;40888;48.148;11.526;2023-07-31T08:52:48;2.17;;;1.70;;
22955;SDS011;40888;48.148;11.526;2023-07-31T08:55:15;3.00;;;2.00;;
22955;SDS011;40888;48.148;11.526;2023-07-31T08:57:41;2.05;;;1.75;;
22955;SDS011;40888;48.148;11.526;2023-07-31T09:00:08;3.97;;;1.70;;
22955;SDS011;40888;48.148;11.526;2023-07-31T09:02:39;3.13;;;1.80;;
22955;SDS011;40888;48.148;11.526;2023-07-31T09:05:11;3.63;;;1.75;;
22955;SDS011;40888;48.148;11.526;2023-07-31T09:07:37;3.42;;;1.55;;
22955;SDS011;40888;48.148;11.526;2023-07-31T09:10:04;3.40;;;1.83;;
22955;SDS011;40888;48.148;11.526;2023-07-31T09:12:31;2.65;;;1.75;;
22955;SDS011;40888;48.148;11.526;2023-07-31T09:14:57;3.55;;;2.30;;
22955;SDS011;40888;48.148;11.526;2023-07-31T09:17:32;5.78;;;1.70;;
22955;SDS011;40888;48.148;11.526;2023-07-31T09:20:17;3.90;;;1.60;;
22955;SDS011;40888;48.148;11.526;2023-07-31T09:22:45;5.85;;;2.05;;
22955;SDS011;40888;48.148;11.526;2023-07-31T09:25:24;4.78;;;2.10;;
22955;SDS011;40888;48.148;11.526;2023-07-31T09:30:18;2.30;;;1.55;;
22955;SDS011;40888;48.148;11.526;2023-07-31T09:32:44;3.20;;;1.90;;
22955;SDS011;40888;48.148;11.526;2023-07-31T09:35:20;4.40;;;1.83;;
22955;SDS011;40888;48.148;11.526;2023-07-31T09:37:51;2.83;;;2.05;;
22955;SDS011;40888;48.148;11.526;2023-07-31T09:40:24;3.25;;;1.88;;
22955;SDS011;40888;48.148;11.526;2023-07-31T09:43:01;3.47;;;1.70;;
22955;SDS011;40888;48.148;11.526;2023-07-31T09:45:29;2.72;;;1.70;;
22955;SDS011;40888;48.148;11.526;2023-07-31T09:47:56;3.85;;;1.95;;
22955;SDS011;40888;48.148;11.526;2023-07-31T09:50:22;5.65;;;2.03;;
22955;SDS011;40888;48.148;11.526;2023-07-31T09:52:49;7.20;;;2.00;;
22955;SDS011;40888;48.148;11.526;2023-07-31T09:55:17;4.85;;;1.95;;
22955;SDS011;40888;48.148;11.526;2023-07-31T09:57:47;2.92;;;2.00;;
22955;SDS011;40888;48.148;11.526;2023-07-31T10:00:14;3.83;;;1.85;;
22955;SDS011;40888;48.148;11.526;2023-07-31T10:02:42;2.58;;;1.85;;
22955;SDS011;40888;48.148;11.526;2023-07-31T10:05:10;3.25;;;1.85;;
22955;SDS011;40888;48.148;11.526;2023-07-31T10:07:42;4.97;;;2.10;;
22955;SDS011;40888;48.148;11.526;2023-07-31T10:10:16;2.08;;;1.88;;
22955;SDS011;40888;48.148;11.526;2023-07-31T10:12:43;2.05;;;1.67;;
22955;SDS011;40888;48.148;11.526;2023-07-31T10:15:10;4.50;;;1.75;;
22955;SDS011;40888;48.148;11.526;2023-07-31T10:17:37;3.00;;;1.80;;
22955;SDS011;40888;48.148;11.526;2023-07-31T10:20:03;2.50;;;1.48;;
22955;SDS011;40888;48.148;11.526;2023-07-31T10:22:31;3.55;;;2.08;;
22955;SDS011;40888;48.148;11.526;2023-07-31T10:25:00;5.03;;;2.22;;
22955;SDS011;40888;48.148;11.526;2023-07-31T10:27:26;5.30;;;1.95;;
22955;SDS011;40888;48.148;11.526;2023-07-31T10:29:53;2.20;;;1.73;;
22955;SDS011;40888;48.148;11.526;2023-07-31T10:32:20;3.80;;;1.80;;
22955;SDS011;40888;48.148;11.526;2023-07-31T10:34:48;2.28;;;1.90;;
22955;SDS011;40888;48.148;11.526;2023-07-31T10:37:28;5.50;;;1.98;;
22955;SDS011;40888;48.148;11.526;2023-07-31T10:40:02;3.63;;;1.85;;
22955;SDS011;40888;48.148;11.526;2023-07-31T10:42:30;2.17;;;1.92;;
22955;SDS011;40888;48.148;11.526;2023-07-31T10:44:59;3.83;;;1.88;;
22955;SDS011;40888;48.148;11.526;2023-07-31T10:47:45;4.32;;;1.92;;
22955;SDS011;40888;48.148;11.526;2023-07-31T10:50:18;3.88;;;1.33;;
22955;SDS011;40888;48.148;11.526;2023-07-31T10:52:52;4.07;;;1.83;;
22955;SDS011;40888;48.148;11.526;2023-07-31T10:55:26;4.43;;;1.90;;
22955;SDS011;40888;48.148;11.526;2023-07-31T10:57:53;3.25;;;1.50;;
22955;SDS011;40888;48.148;11.526;2023-07-31T11:00:27;4.82;;;2.05;;
22955;SDS011;40888;48.148;11.526;2023-07-31T11:02:57;2.28;;;1.80;;
22955;SDS011;40888;48.148;11.526;2023-07-31T11:05:43;3.85;;;1.73;;
22955;SDS011;40888;48.148;11.526;2023-07-31T11:08:19;2.55;;;1.85;;
22955;SDS011;40888;48.148;11.526;2023-07-31T11:15:54;2.65;;;1.80;;
22955;SDS011;40888;48.148;11.526;2023-07-31T11:18:20;2.60;;;1.80;;
22955;SDS011;40888;48.148;11.526;2023-07-31T11:20:46;5.22;;;2.25;;
22955;SDS011;40888;48.148;11.526;2023-07-31T11:23:12;5.07;;;2.03;;
22955;SDS011;40888;48.148;11.526;2023-07-31T11:25:40;2.17;;;1.70;;
22955;SDS011;40888;48.148;11.526;2023-07-31T11:28:08;1.92;;;1.55;;
22955;SDS011;40888;48.148;11.526;2023-07-31T11:30:35;4.38;;;1.63;;
22955;SDS011;40888;48.148;11.526;2023-07-31T11:33:02;3.17;;;1.75;;
22955;SDS011;40888;48.148;11.526;2023-07-31T11:35:31;1.83;;;1.73;;
22955;SDS011;40888;48.148;11.526;2023-07-31T11:37:58;3.95;;;1.92;;
22955;SDS011;40888;48.148;11.526;2023-07-31T11:40:24;5.97;;;2.13;;
22955;SDS011;40888;48.148;11.526;2023-07-31T11:42:58;2.17;;;1.65;;
22955;SDS011;40888;48.148;11.526;2023-07-31T11:45:27;3.78;;;2.08;;
22955;SDS011;40888;48.148;11.526;2023-07-31T11:47:56;3.60;;;1.70;;
22955;SDS011;40888;48.148;11.526;2023-07-31T11:50:23;5.10;;;1.75;;
22955;SDS011;40888;48.148;11.526;2023-07-31T11:52:56;3.88;;;1.92;;
22955;SDS011;40888;48.148;11.526;2023-07-31T11:55:24;4.15;;;2.05;;
22955;SDS011;40888;48.148;11.526;2023-07-31T11:57:51;2.10;;;1.77;;
22955;SDS011;40888;48.148;11.526;2023-07-31T12:00:18;3.65;;;1.85;;
22955;SDS011;40888;48.148;11.526;2023-07-31T12:02:45;3.72;;;1.67;;
22955;SDS011;40888;48.148;11.526;2023-07-31T12:05:14;2.60;;;1.70;;
22955;SDS011;40888;48.148;11.526;2023-07-31T12:07:46;3.17;;;1.95;;
22955;SDS011;40888;48.148;11.526;2023-07-31T12:10:23;2.72;;;1.90;;
22955;SDS011;40888;48.148;11.526;2023-07-31T12:15:37;5.03;;;1.75;;
22955;SDS011;40888;48.148;11.526;2023-07-31T12:18:11;4.15;;;1.67;;
22955;SDS011;40888;48.148;11.526;2023-07-31T12:20:43;4.78;;;2.00;;
22955;SDS011;40888;48.148;11.526;2023-07-31T12:23:17;4.32;;;2.10;;
22955;SDS011;40888;48.148;11.526;2023-07-31T12:26:02;4.65;;;2.20;;
22955;SDS011;40888;48.148;11.526;2023-07-31T12:28:29;2.08;;;1.88;;
22955;SDS011;40888;48.148;11.526;2023-07-31T12:30:58;3.90;;;1.98;;
22955;SDS011;40888;48.148;11.526;2023-07-31T12:33:30;5.90;;;1.70;;
22955;SDS011;40888;48.148;11.526;2023-07-31T12:35:57;2.97;;;1.80;;
22955;SDS011;40888;48.148;11.526;2023-07-31T12:38:25;3.13;;;1.83;;
22955;SDS011;40888;48.148;11.526;2023-07-31T12:40:51;4.88;;;1.88;;
22955;SDS011;40888;48.148;11.526;2023-07-31T12:43:17;3.92;;;2.15;;
22955;SDS011;40888;48.148;11.526;2023-07-31T12:45:42;1.90;;;1.60;;
22955;SDS011;40888;48.148;11.526;2023-07-31T12:48:08;6.70;;;2.00;;
22955;SDS011;40888;48.148;11.526;2023-07-31T12:50:34;3.08;;;1.92;;
22955;SDS011;40888;48.148;11.526;2023-07-31T12:53:02;2.55;;;2.10;;
22955;SDS011;40888;48.148;11.526;2023-07-31T12:55:28;2.53;;;1.80;;
22955;SDS011;40888;48.148;11.526;2023-07-31T12:57:55;4.45;;;1.88;;
22955;SDS011;40888;48.148;11.526;2023-07-31T13:00:21;5.82;;;2.10;;
22955;SDS011;40888;48.148;11.526;2023-07-31T13:02:47;3.63;;;1.80;;
22955;SDS011;40888;48.148;11.526;2023-07-31T13:05:13;2.75;;;2.03;;
22955;SDS011;40888;48.148;11.526;2023-07-31T13:07:39;2.72;;;1.75;;
22955;SDS011;40888;48.148;11.526;2023-07-31T13:10:06;4.18;;;1.70;;
22955;SDS011;40888;48.148;11.526;2023-07-31T13:12:32;2.78;;;2.05;;
22955;SDS011;40888;48.148;11.526;2023-07-31T13:14:58;1.80;;;1.60;;
22955;SDS011;40888;48.148;11.526;2023-07-31T13:17:24;5.20;;;2.00;;
22955;SDS011;40888;48.148;11.526;2023-07-31T13:19:50;2.42;;;1.88;;
22955;SDS011;40888;48.148;11.526;2023-07-31T13:22:15;6.32;;;2.10;;
22955;SDS011;40888;48.148;11.526;2023-07-31T13:24:41;3.33;;;1.65;;
22955;SDS011;40888;48.148;11.526;2023-07-31T13:27:07;1.85;;;1.73;;
22955;SDS011;40888;48.148;11.526;2023-07-31T13:29:33;2.25;;;1.40;;
22955;SDS011;40888;48.148;11.526;2023-07-31T13:31:58;2.03;;;1.73;;
22955;SDS011;40888;48.148;11.526;2023-07-31T13:34:24;2.47;;;1.70;;
22955;SDS011;40888;48.148;11.526;2023-07-31T13:36:50;4.53;;;1.85;;
22955;SDS011;40888;48.148;11.526;2023-07-31T13:39:15;3.58;;;1.90;;
22955;SDS011;40888;48.148;11.526;2023-07-31T13:41:41;6.68;;;1.67;;
22955;SDS011;40888;48.148;11.526;2023-07-31T13:44:07;3.10;;;1.90;;
22955;SDS011;40888;48.148;11.526;2023-07-31T13:46:32;3.17;;;1.55;;
22955;SDS011;40888;48.148;11.526;2023-07-31T13:48:59;2.55;;;1.70;;
22955;SDS011;40888;48.148;11.526;2023-07-31T13:51:25;2.05;;;1.85;;
22955;SDS011;40888;48.148;11.526;2023-07-31T13:53:52;3.05;;;1.52;;
22955;SDS011;40888;48.148;11.526;2023-07-31T13:56:18;2.78;;;2.08;;
22955;SDS011;40888;48.148;11.526;2023-07-31T13:58:44;1.80;;;1.70;;
22955;SDS011;40888;48.148;11.526;2023-07-31T14:01:09;2.13;;;1.80;;
22955;SDS011;40888;48.148;11.526;2023-07-31T14:03:35;3.50;;;2.15;;
22955;SDS011;40888;48.148;11.526;2023-07-31T14:06:01;3.28;;;1.75;;
22955;SDS011;40888;48.148;11.526;2023-07-31T14:08:27;2.47;;;1.77;;
22955;SDS011;40888;48.148;11.526;2023-07-31T14:10:53;1.73;;;1.60;;
22955;SDS011;40888;48.148;11.526;2023-07-31T14:13:18;2.45;;;1.58;;
22955;SDS011;40888;48.148;11.526;2023-07-31T14:15:44;1.98;;;1.45;;
22955;SDS011;40888;48.148;11.526;2023-07-31T14:18:10;2.40;;;2.10;;
22955;SDS011;40888;48.148;11.526;2023-07-31T14:20:35;3.05;;;1.80;;
22955;SDS011;40888;48.148;11.526;2023-07-31T14:25:31;2.38;;;1.65;;
22955;SDS011;40888;48.148;11.526;2023-07-31T14:27:57;2.80;;;1.92;;
22955;SDS011;40888;48.148;11.526;2023-07-31T14:30:22;2.08;;;1.70;;
22955;SDS011;40888;48.148;11.526;2023-07-31T14:32:48;2.90;;;2.20;;
22955;SDS011;40888;48.148;11.526;2023-07-31T14:35:14;1.95;;;1.85;;
22955;SDS011;40888;48.148;11.526;2023-07-31T14:37:40;4.38;;;2.00;;
22955;SDS011;40888;48.148;11.526;2023-07-31T14:40:10;4.57;;;2.17;;
22955;SDS011;40888;48.148;11.526;2023-07-31T14:42:37;6.97;;;2.33;;
22955;SDS011;40888;48.148;11.526;2023-07-31T14:45:06;2.50;;;2.10;;
22955;SDS011;40888;48.148;11.526;2023-07-31T14:47:32;3.30;;;2.20;;
22955;SDS011;40888;48.148;11.526;2023-07-31T14:49:59;2.80;;;2.38;;
22955;SDS011;40888;48.148;11.526;2023-07-31T14:52:25;3.03;;;2.10;;